sensor_id;sensor_type;location;lat;lon;timestamp;temperature;humidity
21061;DHT22;10689;50.836;3.266;2022-12-31T00:01:10;14.40;99.90
21061;DHT22;10689;50.836;3.266;2022-12-31T00:03:37;14.40;99.90
21061;DHT22;10689;50.836;3.266;2022-12-31T00:08:45;14.20;99.90
21061;DHT22;10689;50.836;3.266;2022-12-31T00:11:12;14.20;99.90
21061;DHT22;10689;50.836;3.266;2022-12-31T00:13:38;14.20;99.90
21061;DHT22;10689;50.836;3.266;2022-12-31T00:16:20;14.20;99.90
21061;DHT22;10689;50.836;3.266;2022-12-31T00:18:47;14.10;99.90
21061;DHT22;10689;50.836;3.266;2022-12-31T00:21:14;14.20;99.90
21061;DHT22;10689;50.836;3.266;2022-12-31T00:23:41;14.20;99.90
21061;DHT22;10689;50.836;3.266;2022-12-31T00:26:15;14.20;99.90
21061;DHT22;10689;50.836;3.266;2022-12-31T00:28:41;14.20;99.90
21061;DHT22;10689;50.836;3.266;2022-12-31T00:31:10;14.10;99.90
21061;DHT22;10689;50.836;3.266;2022-12-31T00:33:36;14.00;99.90
21061;DHT22;10689;50.836;3.266;2022-12-31T00:36:09;14.10;99.90
21061;DHT22;10689;50.836;3.266;2022-12-31T00:38:40;14.00;99.90
21061;DHT22;10689;50.836;3.266;2022-12-31T00:41:06;14.00;99.90
21061;DHT22;10689;50.836;3.266;2022-12-31T00:43:32;13.90;99.90
21061;DHT22;10689;50.836;3.266;2022-12-31T00:45:58;14.00;99.90
21061;DHT22;10689;50.836;3.266;2022-12-31T00:48:25;14.00;99.90
21061;DHT22;10689;50.836;3.266;2022-12-31T00:50:51;14.10;99.90
21061;DHT22;10689;50.836;3.266;2022-12-31T00:53:17;14.10;99.90
21061;DHT22;10689;50.836;3.266;2022-12-31T00:55:43;14.10;99.90
21061;DHT22;10689;50.836;3.266;2022-12-31T00:58:09;14.10;99.90
21061;DHT22;10689;50.836;3.266;2022-12-31T01:00:35;14.00;99.90
21061;DHT22;10689;50.836;3.266;2022-12-31T01:03:01;14.00;99.90
21061;DHT22;10689;50.836;3.266;2022-12-31T01:05:29;14.00;99.90
21061;DHT22;10689;50.836;3.266;2022-12-31T01:07:55;14.00;99.90
21061;DHT22;10689;50.836;3.266;2022-12-31T01:10:21;14.00;99.90
21061;DHT22;10689;50.836;3.266;2022-12-31T01:13:06;14.20;99.90
21061;DHT22;10689;50.836;3.266;2022-12-31T01:15:36;14.10;99.90
21061;DHT22;10689;50.836;3.266;2022-12-31T01:18:06;14.10;99.90
21061;DHT22;10689;50.836;3.266;2022-12-31T01:20:41;14.00;99.90
21061;DHT22;10689;50.836;3.266;2022-12-31T01:23:09;14.00;99.90
21061;DHT22;10689;50.836;3.266;2022-12-31T01:25:36;13.90;99.90
21061;DHT22;10689;50.836;3.266;2022-12-31T01:28:09;14.00;99.90
21061;DHT22;10689;50.836;3.266;2022-12-31T01:30:38;14.00;99.90
21061;DHT22;10689;50.836;3.266;2022-12-31T01:33:06;14.00;99.90
21061;DHT22;10689;50.836;3.266;2022-12-31T01:35:35;14.10;99.90
21061;DHT22;10689;50.836;3.266;2022-12-31T01:38:01;14.10;99.90
21061;DHT22;10689;50.836;3.266;2022-12-31T01:40:27;14.00;99.90
21061;DHT22;10689;50.836;3.266;2022-12-31T01:42:56;14.00;99.90
21061;DHT22;10689;50.836;3.266;2022-12-31T01:45:23;14.00;99.90
21061;DHT22;10689;50.836;3.266;2022-12-31T01:47:52;14.00;99.90
21061;DHT22;10689;50.836;3.266;2022-12-31T01:50:27;14.00;99.90
21061;DHT22;10689;50.836;3.266;2022-12-31T01:52:58;14.00;99.90
21061;DHT22;10689;50.836;3.266;2022-12-31T01:58:05;14.00;99.90
21061;DHT22;10689;50.836;3.266;2022-12-31T02:00:32;14.00;99.90
21061;DHT22;10689;50.836;3.266;2022-12-31T02:02:58;14.00;99.90
21061;DHT22;10689;50.836;3.266;2022-12-31T02:05:32;14.10;99.90
21061;DHT22;10689;50.836;3.266;2022-12-31T02:08:02;14.00;99.90
21061;DHT22;10689;50.836;3.266;2022-12-31T02:10:28;14.00;99.90
21061;DHT22;10689;50.836;3.266;2022-12-31T02:12:54;14.00;99.90
21061;DHT22;10689;50.836;3.266;2022-12-31T02:18:44;13.80;99.90
21061;DHT22;10689;50.836;3.266;2022-12-31T02:21:31;13.90;99.90
21061;DHT22;10689;50.836;3.266;2022-12-31T02:30:05;13.80;99.90
21061;DHT22;10689;50.836;3.266;2022-12-31T02:32:20;13.80;99.90
21061;DHT22;10689;50.836;3.266;2022-12-31T02:34:52;13.90;99.90
21061;DHT22;10689;50.836;3.266;2022-12-31T02:37:22;14.10;99.90
21061;DHT22;10689;50.836;3.266;2022-12-31T02:39:52;14.10;99.90
21061;DHT22;10689;50.836;3.266;2022-12-31T02:42:17;14.20;99.90
21061;DHT22;10689;50.836;3.266;2022-12-31T02:44:44;14.20;99.90
21061;DHT22;10689;50.836;3.266;2022-12-31T02:55:48;14.50;99.90
21061;DHT22;10689;50.836;3.266;2022-12-31T03:01:23;14.70;99.90
21061;DHT22;10689;50.836;3.266;2022-12-31T03:04:10;14.70;99.90
21061;DHT22;10689;50.836;3.266;2022-12-31T03:06:55;14.70;99.90
21061;DHT22;10689;50.836;3.266;2022-12-31T03:09:21;14.80;99.90
21061;DHT22;10689;50.836;3.266;2022-12-31T03:11:47;14.90;99.90
21061;DHT22;10689;50.836;3.266;2022-12-31T03:14:31;14.90;99.90
21061;DHT22;10689;50.836;3.266;2022-12-31T03:17:00;14.90;99.90
21061;DHT22;10689;50.836;3.266;2022-12-31T03:19:26;14.90;99.90
21061;DHT22;10689;50.836;3.266;2022-12-31T03:22:13;15.00;99.90
21061;DHT22;10689;50.836;3.266;2022-12-31T03:25:04;15.00;99.90
21061;DHT22;10689;50.836;3.266;2022-12-31T03:27:49;15.00;99.90
21061;DHT22;10689;50.836;3.266;2022-12-31T03:30:20;15.00;99.90
21061;DHT22;10689;50.836;3.266;2022-12-31T03:32:47;15.00;99.90
21061;DHT22;10689;50.836;3.266;2022-12-31T03:35:15;15.10;99.90
21061;DHT22;10689;50.836;3.266;2022-12-31T03:37:45;15.10;99.90
21061;DHT22;10689;50.836;3.266;2022-12-31T03:40:12;15.10;99.90
21061;DHT22;10689;50.836;3.266;2022-12-31T03:42:38;15.10;99.90
21061;DHT22;10689;50.836;3.266;2022-12-31T03:45:04;15.10;99.90
21061;DHT22;10689;50.836;3.266;2022-12-31T03:47:30;15.20;99.90
21061;DHT22;10689;50.836;3.266;2022-12-31T03:49:56;15.20;99.90
21061;DHT22;10689;50.836;3.266;2022-12-31T03:52:22;15.20;99.90
21061;DHT22;10689;50.836;3.266;2022-12-31T03:54:50;15.20;99.90
21061;DHT22;10689;50.836;3.266;2022-12-31T03:57:16;15.20;99.90
21061;DHT22;10689;50.836;3.266;2022-12-31T03:59:45;15.20;99.90
21061;DHT22;10689;50.836;3.266;2022-12-31T04:02:11;15.20;99.90
21061;DHT22;10689;50.836;3.266;2022-12-31T04:04:37;15.30;99.90
21061;DHT22;10689;50.836;3.266;2022-12-31T04:07:03;15.30;99.90
21061;DHT22;10689;50.836;3.266;2022-12-31T04:09:29;15.30;99.90
21061;DHT22;10689;50.836;3.266;2022-12-31T04:11:54;15.30;99.90
21061;DHT22;10689;50.836;3.266;2022-12-31T04:14:20;15.30;99.90
21061;DHT22;10689;50.836;3.266;2022-12-31T04:16:46;15.30;99.90
21061;DHT22;10689;50.836;3.266;2022-12-31T04:19:12;15.30;99.90
21061;DHT22;10689;50.836;3.266;2022-12-31T04:21:38;15.30;99.90
21061;DHT22;10689;50.836;3.266;2022-12-31T04:24:04;15.30;99.90
21061;DHT22;10689;50.836;3.266;2022-12-31T04:26:31;15.30;99.90
21061;DHT22;10689;50.836;3.266;2022-12-31T04:28:57;15.30;99.90
21061;DHT22;10689;50.836;3.266;2022-12-31T04:31:22;15.30;99.90
21061;DHT22;10689;50.836;3.266;2022-12-31T04:33:48;15.30;99.90
21061;DHT22;10689;50.836;3.266;2022-12-31T04:36:16;15.30;99.90
21061;DHT22;10689;50.836;3.266;2022-12-31T04:38:46;15.30;99.90
21061;DHT22;10689;50.836;3.266;2022-12-31T04:41:12;15.30;99.90
21061;DHT22;10689;50.836;3.266;2022-12-31T04:43:53;15.40;99.90
21061;DHT22;10689;50.836;3.266;2022-12-31T04:46:24;15.40;99.90
21061;DHT22;10689;50.836;3.266;2022-12-31T04:48:50;15.40;99.90
21061;DHT22;10689;50.836;3.266;2022-12-31T04:51:19;15.40;99.90
21061;DHT22;10689;50.836;3.266;2022-12-31T04:53:45;15.50;99.90
21061;DHT22;10689;50.836;3.266;2022-12-31T04:56:11;15.50;99.90
21061;DHT22;10689;50.836;3.266;2022-12-31T04:58:37;15.50;99.90
21061;DHT22;10689;50.836;3.266;2022-12-31T05:01:04;15.60;99.90
21061;DHT22;10689;50.836;3.266;2022-12-31T05:03:30;15.70;99.90
21061;DHT22;10689;50.836;3.266;2022-12-31T05:06:05;15.70;99.90
21061;DHT22;10689;50.836;3.266;2022-12-31T05:08:33;15.70;99.90
21061;DHT22;10689;50.836;3.266;2022-12-31T05:10:59;15.70;99.90
21061;DHT22;10689;50.836;3.266;2022-12-31T05:13:25;15.80;99.90
21061;DHT22;10689;50.836;3.266;2022-12-31T05:15:51;15.70;99.90
21061;DHT22;10689;50.836;3.266;2022-12-31T05:18:18;15.80;99.90
21061;DHT22;10689;50.836;3.266;2022-12-31T05:20:44;15.70;99.90
21061;DHT22;10689;50.836;3.266;2022-12-31T05:23:13;15.80;99.90
21061;DHT22;10689;50.836;3.266;2022-12-31T05:25:43;15.80;99.90
21061;DHT22;10689;50.836;3.266;2022-12-31T05:28:12;15.80;99.90
21061;DHT22;10689;50.836;3.266;2022-12-31T05:30:41;15.80;99.90
21061;DHT22;10689;50.836;3.266;2022-12-31T05:33:07;15.90;99.90
21061;DHT22;10689;50.836;3.266;2022-12-31T05:35:34;15.90;99.90
21061;DHT22;10689;50.836;3.266;2022-12-31T05:38:00;15.90;99.90
21061;DHT22;10689;50.836;3.266;2022-12-31T05:40:29;16.00;99.90
21061;DHT22;10689;50.836;3.266;2022-12-31T05:42:58;15.90;99.90
21061;DHT22;10689;50.836;3.266;2022-12-31T05:45:24;15.90;99.90
21061;DHT22;10689;50.836;3.266;2022-12-31T05:47:50;15.90;99.90
21061;DHT22;10689;50.836;3.266;2022-12-31T05:50:16;15.90;99.90
21061;DHT22;10689;50.836;3.266;2022-12-31T05:52:46;15.90;99.90
21061;DHT22;10689;50.836;3.266;2022-12-31T05:55:12;15.90;99.90
21061;DHT22;10689;50.836;3.266;2022-12-31T05:57:38;15.90;99.90
21061;DHT22;10689;50.836;3.266;2022-12-31T06:00:08;15.90;99.90
21061;DHT22;10689;50.836;3.266;2022-12-31T06:02:37;15.90;99.90
21061;DHT22;10689;50.836;3.266;2022-12-31T06:05:05;15.90;99.90
21061;DHT22;10689;50.836;3.266;2022-12-31T06:07:35;15.90;99.90
21061;DHT22;10689;50.836;3.266;2022-12-31T06:10:01;15.90;99.90
21061;DHT22;10689;50.836;3.266;2022-12-31T06:12:27;16.00;99.90
21061;DHT22;10689;50.836;3.266;2022-12-31T06:14:55;16.00;99.90
21061;DHT22;10689;50.836;3.266;2022-12-31T06:17:24;16.00;99.90
21061;DHT22;10689;50.836;3.266;2022-12-31T06:19:53;16.00;99.90
21061;DHT22;10689;50.836;3.266;2022-12-31T06:22:22;16.00;99.90
21061;DHT22;10689;50.836;3.266;2022-12-31T06:24:48;16.00;99.90
21061;DHT22;10689;50.836;3.266;2022-12-31T06:27:14;15.90;99.90
21061;DHT22;10689;50.836;3.266;2022-12-31T06:29:46;15.90;99.90
21061;DHT22;10689;50.836;3.266;2022-12-31T06:32:12;15.90;99.90
21061;DHT22;10689;50.836;3.266;2022-12-31T06:34:38;16.00;99.90
21061;DHT22;10689;50.836;3.266;2022-12-31T06:37:04;15.90;99.90
21061;DHT22;10689;50.836;3.266;2022-12-31T06:39:30;15.90;99.90
21061;DHT22;10689;50.836;3.266;2022-12-31T06:41:56;15.90;99.90
21061;DHT22;10689;50.836;3.266;2022-12-31T06:44:23;15.90;99.90
21061;DHT22;10689;50.836;3.266;2022-12-31T06:46:49;15.90;99.90
21061;DHT22;10689;50.836;3.266;2022-12-31T06:49:16;15.80;99.90
21061;DHT22;10689;50.836;3.266;2022-12-31T06:51:44;15.90;99.90
21061;DHT22;10689;50.836;3.266;2022-12-31T06:54:12;15.90;99.90
21061;DHT22;10689;50.836;3.266;2022-12-31T06:56:38;15.90;99.90
21061;DHT22;10689;50.836;3.266;2022-12-31T06:59:08;15.80;99.90
21061;DHT22;10689;50.836;3.266;2022-12-31T07:01:48;15.80;99.90
21061;DHT22;10689;50.836;3.266;2022-12-31T07:16:19;15.80;99.90
21061;DHT22;10689;50.836;3.266;2022-12-31T07:19:06;15.70;99.90
21061;DHT22;10689;50.836;3.266;2022-12-31T07:21:40;15.80;99.90
21061;DHT22;10689;50.836;3.266;2022-12-31T07:24:08;15.80;99.90
21061;DHT22;10689;50.836;3.266;2022-12-31T07:34:36;15.80;99.90
21061;DHT22;10689;50.836;3.266;2022-12-31T07:40:04;15.70;99.90
21061;DHT22;10689;50.836;3.266;2022-12-31T07:42:41;15.80;99.90
21061;DHT22;10689;50.836;3.266;2022-12-31T07:45:36;15.80;99.90
21061;DHT22;10689;50.836;3.266;2022-12-31T07:48:23;15.70;99.90
21061;DHT22;10689;50.836;3.266;2022-12-31T07:50:51;15.70;99.90
21061;DHT22;10689;50.836;3.266;2022-12-31T07:53:19;15.70;99.90
21061;DHT22;10689;50.836;3.266;2022-12-31T07:55:51;15.70;99.90
21061;DHT22;10689;50.836;3.266;2022-12-31T07:58:24;15.70;99.90
21061;DHT22;10689;50.836;3.266;2022-12-31T08:00:55;15.70;99.90
21061;DHT22;10689;50.836;3.266;2022-12-31T08:06:14;15.70;99.90
21061;DHT22;10689;50.836;3.266;2022-12-31T08:08:52;15.60;99.90
21061;DHT22;10689;50.836;3.266;2022-12-31T08:14:00;15.60;99.90
21061;DHT22;10689;50.836;3.266;2022-12-31T08:16:27;15.60;99.90
21061;DHT22;10689;50.836;3.266;2022-12-31T08:18:53;15.60;99.90
21061;DHT22;10689;50.836;3.266;2022-12-31T08:22:09;15.60;99.90
21061;DHT22;10689;50.836;3.266;2022-12-31T08:27:14;15.60;99.90
21061;DHT22;10689;50.836;3.266;2022-12-31T08:30:14;15.60;99.90
21061;DHT22;10689;50.836;3.266;2022-12-31T08:35:30;15.70;99.90
21061;DHT22;10689;50.836;3.266;2022-12-31T08:43:34;15.80;99.90
21061;DHT22;10689;50.836;3.266;2022-12-31T08:46:06;15.80;99.90
21061;DHT22;10689;50.836;3.266;2022-12-31T08:48:42;15.80;99.90
21061;DHT22;10689;50.836;3.266;2022-12-31T08:51:19;15.90;99.90
21061;DHT22;10689;50.836;3.266;2022-12-31T08:53:45;15.90;99.90
21061;DHT22;10689;50.836;3.266;2022-12-31T09:04:57;16.10;99.90
21061;DHT22;10689;50.836;3.266;2022-12-31T09:07:37;16.10;99.90
21061;DHT22;10689;50.836;3.266;2022-12-31T09:15:50;16.30;99.90
21061;DHT22;10689;50.836;3.266;2022-12-31T09:18:17;16.30;99.90
21061;DHT22;10689;50.836;3.266;2022-12-31T09:20:43;16.30;99.90
21061;DHT22;10689;50.836;3.266;2022-12-31T09:23:10;16.30;99.90
21061;DHT22;10689;50.836;3.266;2022-12-31T09:25:46;16.30;99.90
21061;DHT22;10689;50.836;3.266;2022-12-31T09:28:30;16.30;99.90
21061;DHT22;10689;50.836;3.266;2022-12-31T09:31:12;16.40;99.90
21061;DHT22;10689;50.836;3.266;2022-12-31T09:33:54;16.40;99.90
21061;DHT22;10689;50.836;3.266;2022-12-31T09:36:31;16.50;99.90
21061;DHT22;10689;50.836;3.266;2022-12-31T09:39:21;16.50;99.90
21061;DHT22;10689;50.836;3.266;2022-12-31T09:53:31;16.50;99.90
21061;DHT22;10689;50.836;3.266;2022-12-31T10:01:22;16.50;99.90
21061;DHT22;10689;50.836;3.266;2022-12-31T10:04:28;16.50;99.90
21061;DHT22;10689;50.836;3.266;2022-12-31T10:07:07;16.50;99.90
21061;DHT22;10689;50.836;3.266;2022-12-31T10:21:05;16.60;99.90
21061;DHT22;10689;50.836;3.266;2022-12-31T10:32:14;16.70;99.90
21061;DHT22;10689;50.836;3.266;2022-12-31T10:34:53;16.70;99.90
21061;DHT22;10689;50.836;3.266;2022-12-31T10:37:26;16.80;99.90
21061;DHT22;10689;50.836;3.266;2022-12-31T10:43:13;16.70;99.90
21061;DHT22;10689;50.836;3.266;2022-12-31T10:48:47;16.70;99.90
21061;DHT22;10689;50.836;3.266;2022-12-31T10:54:32;16.80;99.90
21061;DHT22;10689;50.836;3.266;2022-12-31T11:08:27;16.60;99.90
21061;DHT22;10689;50.836;3.266;2022-12-31T11:33:46;16.60;99.90
21061;DHT22;10689;50.836;3.266;2022-12-31T11:39:28;16.70;99.90
21061;DHT22;10689;50.836;3.266;2022-12-31T11:45:19;16.60;99.90
21061;DHT22;10689;50.836;3.266;2022-12-31T11:50:57;16.70;99.90
21061;DHT22;10689;50.836;3.266;2022-12-31T11:56:18;16.70;99.90
21061;DHT22;10689;50.836;3.266;2022-12-31T11:58:55;16.90;99.90
21061;DHT22;10689;50.836;3.266;2022-12-31T12:01:34;16.90;99.90
21061;DHT22;10689;50.836;3.266;2022-12-31T12:04:05;16.90;99.90
21061;DHT22;10689;50.836;3.266;2022-12-31T12:06:34;17.00;99.90
21061;DHT22;10689;50.836;3.266;2022-12-31T12:09:06;17.10;99.90
21061;DHT22;10689;50.836;3.266;2022-12-31T12:11:38;17.10;99.90
21061;DHT22;10689;50.836;3.266;2022-12-31T12:16:57;17.10;99.90
21061;DHT22;10689;50.836;3.266;2022-12-31T12:19:25;17.10;99.90
21061;DHT22;10689;50.836;3.266;2022-12-31T12:21:53;17.20;99.90
21061;DHT22;10689;50.836;3.266;2022-12-31T12:24:26;17.20;99.90
21061;DHT22;10689;50.836;3.266;2022-12-31T12:26:55;17.20;99.90
21061;DHT22;10689;50.836;3.266;2022-12-31T12:29:28;17.20;99.90
21061;DHT22;10689;50.836;3.266;2022-12-31T12:31:57;17.10;99.90
21061;DHT22;10689;50.836;3.266;2022-12-31T12:34:30;17.10;99.90
21061;DHT22;10689;50.836;3.266;2022-12-31T12:36:56;17.10;99.90
21061;DHT22;10689;50.836;3.266;2022-12-31T12:39:27;17.10;99.90
21061;DHT22;10689;50.836;3.266;2022-12-31T12:44:26;17.10;99.90
21061;DHT22;10689;50.836;3.266;2022-12-31T12:46:52;17.10;99.90
21061;DHT22;10689;50.836;3.266;2022-12-31T12:49:52;17.00;99.90
21061;DHT22;10689;50.836;3.266;2022-12-31T13:00:22;17.00;99.90
21061;DHT22;10689;50.836;3.266;2022-12-31T13:03:26;16.80;99.90
21061;DHT22;10689;50.836;3.266;2022-12-31T13:14:02;16.80;99.90
21061;DHT22;10689;50.836;3.266;2022-12-31T13:29:58;16.80;99.90
21061;DHT22;10689;50.836;3.266;2022-12-31T13:32:49;16.70;99.90
21061;DHT22;10689;50.836;3.266;2022-12-31T13:35:29;16.70;99.90
21061;DHT22;10689;50.836;3.266;2022-12-31T13:38:04;16.60;99.90
21061;DHT22;10689;50.836;3.266;2022-12-31T13:43:55;16.60;99.90
21061;DHT22;10689;50.836;3.266;2022-12-31T13:47:17;16.50;99.90
21061;DHT22;10689;50.836;3.266;2022-12-31T13:50:03;16.50;99.90
21061;DHT22;10689;50.836;3.266;2022-12-31T13:52:40;16.60;99.90
21061;DHT22;10689;50.836;3.266;2022-12-31T13:55:31;16.60;99.90
21061;DHT22;10689;50.836;3.266;2022-12-31T14:00:52;16.70;99.90
21061;DHT22;10689;50.836;3.266;2022-12-31T14:08:45;16.60;99.90
21061;DHT22;10689;50.836;3.266;2022-12-31T14:21:59;16.40;99.90
21061;DHT22;10689;50.836;3.266;2022-12-31T14:27:09;16.30;99.90
21061;DHT22;10689;50.836;3.266;2022-12-31T14:29:43;16.30;99.90
21061;DHT22;10689;50.836;3.266;2022-12-31T14:35:13;16.30;99.90
21061;DHT22;10689;50.836;3.266;2022-12-31T14:38:07;16.40;99.90
21061;DHT22;10689;50.836;3.266;2022-12-31T14:40:55;16.30;99.90
21061;DHT22;10689;50.836;3.266;2022-12-31T14:51:36;16.30;99.90
21061;DHT22;10689;50.836;3.266;2022-12-31T14:54:21;16.30;99.90
21061;DHT22;10689;50.836;3.266;2022-12-31T14:56:48;16.30;99.90
21061;DHT22;10689;50.836;3.266;2022-12-31T14:59:27;16.30;99.90
21061;DHT22;10689;50.836;3.266;2022-12-31T15:01:54;16.20;99.90
21061;DHT22;10689;50.836;3.266;2022-12-31T15:04:43;16.20;99.90
21061;DHT22;10689;50.836;3.266;2022-12-31T15:07:24;16.20;99.90
21061;DHT22;10689;50.836;3.266;2022-12-31T15:20:48;16.00;99.90
21061;DHT22;10689;50.836;3.266;2022-12-31T15:23:36;16.00;99.90
21061;DHT22;10689;50.836;3.266;2022-12-31T15:26:04;16.00;99.90
21061;DHT22;10689;50.836;3.266;2022-12-31T15:28:39;16.10;99.90
21061;DHT22;10689;50.836;3.266;2022-12-31T15:31:19;16.00;99.90
21061;DHT22;10689;50.836;3.266;2022-12-31T15:34:06;16.00;99.90
21061;DHT22;10689;50.836;3.266;2022-12-31T15:36:34;16.00;99.90
21061;DHT22;10689;50.836;3.266;2022-12-31T15:41:55;16.10;99.90
21061;DHT22;10689;50.836;3.266;2022-12-31T15:44:50;16.00;99.90
21061;DHT22;10689;50.836;3.266;2022-12-31T15:47:29;15.90;99.90
21061;DHT22;10689;50.836;3.266;2022-12-31T15:49:58;15.90;99.90
21061;DHT22;10689;50.836;3.266;2022-12-31T15:57:48;15.90;99.90
21061;DHT22;10689;50.836;3.266;2022-12-31T16:03:28;15.90;99.90
21061;DHT22;10689;50.836;3.266;2022-12-31T16:06:11;15.90;99.90
21061;DHT22;10689;50.836;3.266;2022-12-31T16:08:42;15.90;99.90
21061;DHT22;10689;50.836;3.266;2022-12-31T16:11:09;15.90;99.90
21061;DHT22;10689;50.836;3.266;2022-12-31T16:13:46;15.90;99.90
21061;DHT22;10689;50.836;3.266;2022-12-31T16:18:50;16.00;99.90
21061;DHT22;10689;50.836;3.266;2022-12-31T16:21:35;16.00;99.90
21061;DHT22;10689;50.836;3.266;2022-12-31T16:26:56;16.00;99.90
21061;DHT22;10689;50.836;3.266;2022-12-31T16:29:23;16.00;99.90
21061;DHT22;10689;50.836;3.266;2022-12-31T16:31:51;16.00;99.90
21061;DHT22;10689;50.836;3.266;2022-12-31T16:34:23;15.80;99.90
21061;DHT22;10689;50.836;3.266;2022-12-31T16:37:01;15.80;99.90
21061;DHT22;10689;50.836;3.266;2022-12-31T16:39:33;15.80;99.90
21061;DHT22;10689;50.836;3.266;2022-12-31T16:42:19;15.70;99.90
21061;DHT22;10689;50.836;3.266;2022-12-31T16:44:47;15.70;99.90
21061;DHT22;10689;50.836;3.266;2022-12-31T16:47:22;15.80;99.90
21061;DHT22;10689;50.836;3.266;2022-12-31T16:50:01;15.80;99.90
21061;DHT22;10689;50.836;3.266;2022-12-31T16:52:39;15.70;99.90
21061;DHT22;10689;50.836;3.266;2022-12-31T16:55:15;15.70;99.90
21061;DHT22;10689;50.836;3.266;2022-12-31T16:57:43;15.70;99.90
21061;DHT22;10689;50.836;3.266;2022-12-31T17:00:17;15.70;99.90
21061;DHT22;10689;50.836;3.266;2022-12-31T17:02:59;15.80;99.90
21061;DHT22;10689;50.836;3.266;2022-12-31T17:05:26;15.80;99.90
21061;DHT22;10689;50.836;3.266;2022-12-31T17:07:52;15.80;99.90
21061;DHT22;10689;50.836;3.266;2022-12-31T17:10:34;15.70;99.90
21061;DHT22;10689;50.836;3.266;2022-12-31T17:13:02;15.70;99.90
21061;DHT22;10689;50.836;3.266;2022-12-31T17:15:42;15.80;99.90
21061;DHT22;10689;50.836;3.266;2022-12-31T17:18:20;15.80;99.90
21061;DHT22;10689;50.836;3.266;2022-12-31T17:20:49;15.80;99.90
21061;DHT22;10689;50.836;3.266;2022-12-31T17:23:27;15.80;99.90
21061;DHT22;10689;50.836;3.266;2022-12-31T17:31:28;15.80;99.90
21061;DHT22;10689;50.836;3.266;2022-12-31T17:36:31;15.80;99.90
21061;DHT22;10689;50.836;3.266;2022-12-31T17:39:16;15.80;99.90
21061;DHT22;10689;50.836;3.266;2022-12-31T17:41:44;15.80;99.90
21061;DHT22;10689;50.836;3.266;2022-12-31T17:44:17;15.90;99.90
21061;DHT22;10689;50.836;3.266;2022-12-31T17:46:50;15.90;99.90
21061;DHT22;10689;50.836;3.266;2022-12-31T17:49:17;15.90;99.90
21061;DHT22;10689;50.836;3.266;2022-12-31T17:51:46;15.90;99.90
21061;DHT22;10689;50.836;3.266;2022-12-31T17:54:16;15.90;99.90
21061;DHT22;10689;50.836;3.266;2022-12-31T17:56:44;16.00;99.90
21061;DHT22;10689;50.836;3.266;2022-12-31T17:59:20;16.00;99.90
21061;DHT22;10689;50.836;3.266;2022-12-31T18:01:47;16.00;99.90
21061;DHT22;10689;50.836;3.266;2022-12-31T18:04:17;16.00;99.90
21061;DHT22;10689;50.836;3.266;2022-12-31T18:06:45;16.00;99.90
21061;DHT22;10689;50.836;3.266;2022-12-31T18:09:12;16.00;99.90
21061;DHT22;10689;50.836;3.266;2022-12-31T18:11:41;16.10;99.90
21061;DHT22;10689;50.836;3.266;2022-12-31T18:14:11;16.20;99.90
21061;DHT22;10689;50.836;3.266;2022-12-31T18:16:38;16.20;99.90
21061;DHT22;10689;50.836;3.266;2022-12-31T18:19:04;16.20;99.90
21061;DHT22;10689;50.836;3.266;2022-12-31T18:21:35;16.20;99.90
21061;DHT22;10689;50.836;3.266;2022-12-31T18:24:02;16.20;99.90
21061;DHT22;10689;50.836;3.266;2022-12-31T18:26:29;16.20;99.90
21061;DHT22;10689;50.836;3.266;2022-12-31T18:29:04;16.20;99.90
21061;DHT22;10689;50.836;3.266;2022-12-31T18:31:35;16.20;99.90
21061;DHT22;10689;50.836;3.266;2022-12-31T18:34:03;16.20;99.90
21061;DHT22;10689;50.836;3.266;2022-12-31T18:36:29;16.10;99.90
21061;DHT22;10689;50.836;3.266;2022-12-31T18:38:55;16.10;99.90
21061;DHT22;10689;50.836;3.266;2022-12-31T18:41:26;16.10;99.90
21061;DHT22;10689;50.836;3.266;2022-12-31T18:43:55;16.20;99.90
21061;DHT22;10689;50.836;3.266;2022-12-31T18:46:23;16.10;99.90
21061;DHT22;10689;50.836;3.266;2022-12-31T18:48:49;16.10;99.90
21061;DHT22;10689;50.836;3.266;2022-12-31T18:51:20;16.00;99.90
21061;DHT22;10689;50.836;3.266;2022-12-31T18:53:47;16.00;99.90
21061;DHT22;10689;50.836;3.266;2022-12-31T18:56:20;15.90;99.90
21061;DHT22;10689;50.836;3.266;2022-12-31T18:58:47;16.00;99.90
21061;DHT22;10689;50.836;3.266;2022-12-31T19:01:49;15.90;99.90
21061;DHT22;10689;50.836;3.266;2022-12-31T19:04:20;16.00;99.90
21061;DHT22;10689;50.836;3.266;2022-12-31T19:06:48;15.90;99.90
21061;DHT22;10689;50.836;3.266;2022-12-31T19:09:16;16.00;99.90
21061;DHT22;10689;50.836;3.266;2022-12-31T19:11:47;15.90;99.90
21061;DHT22;10689;50.836;3.266;2022-12-31T19:16:43;15.80;99.90
21061;DHT22;10689;50.836;3.266;2022-12-31T19:19:13;15.80;99.90
21061;DHT22;10689;50.836;3.266;2022-12-31T19:21:39;15.90;99.90
21061;DHT22;10689;50.836;3.266;2022-12-31T19:26:39;15.80;99.90
21061;DHT22;10689;50.836;3.266;2022-12-31T19:29:07;15.80;99.90
21061;DHT22;10689;50.836;3.266;2022-12-31T19:31:34;15.80;99.90
21061;DHT22;10689;50.836;3.266;2022-12-31T19:34:01;15.70;99.90
21061;DHT22;10689;50.836;3.266;2022-12-31T19:36:29;15.70;99.90
21061;DHT22;10689;50.836;3.266;2022-12-31T19:38:55;15.70;99.90
21061;DHT22;10689;50.836;3.266;2022-12-31T19:41:21;15.70;99.90
21061;DHT22;10689;50.836;3.266;2022-12-31T19:43:48;15.70;99.90
21061;DHT22;10689;50.836;3.266;2022-12-31T19:46:16;15.70;99.90
21061;DHT22;10689;50.836;3.266;2022-12-31T19:48:42;15.80;99.90
21061;DHT22;10689;50.836;3.266;2022-12-31T19:51:11;15.70;99.90
21061;DHT22;10689;50.836;3.266;2022-12-31T19:53:45;15.70;99.90
21061;DHT22;10689;50.836;3.266;2022-12-31T19:56:14;15.80;99.90
21061;DHT22;10689;50.836;3.266;2022-12-31T19:58:43;15.80;99.90
21061;DHT22;10689;50.836;3.266;2022-12-31T20:01:21;15.80;99.90
21061;DHT22;10689;50.836;3.266;2022-12-31T20:03:55;15.80;99.90
21061;DHT22;10689;50.836;3.266;2022-12-31T20:06:21;15.80;99.90
21061;DHT22;10689;50.836;3.266;2022-12-31T20:08:49;15.80;99.90
21061;DHT22;10689;50.836;3.266;2022-12-31T20:11:17;15.80;99.90
21061;DHT22;10689;50.836;3.266;2022-12-31T20:13:46;15.80;99.90
21061;DHT22;10689;50.836;3.266;2022-12-31T20:16:17;15.80;99.90
21061;DHT22;10689;50.836;3.266;2022-12-31T20:18:48;15.80;99.90
21061;DHT22;10689;50.836;3.266;2022-12-31T20:21:24;15.90;99.90
21061;DHT22;10689;50.836;3.266;2022-12-31T20:23:52;15.80;99.90
21061;DHT22;10689;50.836;3.266;2022-12-31T20:26:20;15.70;99.90
21061;DHT22;10689;50.836;3.266;2022-12-31T20:28:47;15.60;99.90
21061;DHT22;10689;50.836;3.266;2022-12-31T20:31:15;15.60;99.90
21061;DHT22;10689;50.836;3.266;2022-12-31T20:33:42;15.70;99.90
21061;DHT22;10689;50.836;3.266;2022-12-31T20:36:12;15.70;99.90
21061;DHT22;10689;50.836;3.266;2022-12-31T20:38:39;15.80;99.90
21061;DHT22;10689;50.836;3.266;2022-12-31T20:41:12;15.80;99.90